Time;durP1;ratioP1;P1;durP2;ratioP2;P2;SDS_P1;SDS_P2;PMS_P1;PMS_P2;Temp;Humidity;BMP_temperature;BMP_pressure;BME280_temperature;BME280_humidity;BME280_pressure;Samples;Min_cycle;Max_cycle;Signal;HPM_P1;HPM_P2
2022/08/01 00:02:20;;;;;;;2.20;0.65;;;;;;;19.93;100.00;99112.53;1719101;81;21140;-55
2022/08/01 00:04:46;;;;;;;1.30;0.55;;;;;;;19.92;100.00;99108.58;1721029;81;21006;-53
2022/08/01 00:07:13;;;;;;;2.75;1.22;;;;;;;19.90;100.00;99113.35;1717060;81;21049;-53
2022/08/01 00:09:41;;;;;;;3.27;0.60;;;;;;;19.87;100.00;99110.41;1715043;81;21161;-53
2022/08/01 00:12:08;;;;;;;2.70;0.70;;;;;;;19.86;100.00;99107.81;1716560;81;21532;-52
2022/08/01 00:14:34;;;;;;;1.07;0.60;;;;;;;19.83;100.00;99107.59;1719059;81;21145;-53
2022/08/01 00:17:01;;;;;;;0.98;0.70;;;;;;;19.81;100.00;99103.31;1723294;81;21077;-54
2022/08/01 00:19:27;;;;;;;3.05;0.70;;;;;;;19.78;100.00;99104.46;1715610;81;21098;-53
2022/08/01 00:21:53;;;;;;;2.10;0.60;;;;;;;19.76;100.00;99103.73;1721941;81;21042;-52
2022/08/01 00:24:20;;;;;;;1.87;0.70;;;;;;;19.72;100.00;99109.16;1716435;81;21061;-53
2022/08/01 00:26:47;;;;;;;4.12;0.70;;;;;;;19.70;100.00;99100.74;1714032;81;22894;-54
2022/08/01 00:29:13;;;;;;;1.35;0.70;;;;;;;19.67;100.00;99100.52;1715474;81;21062;-52
2022/08/01 00:31:40;;;;;;;2.22;0.70;;;;;;;19.65;100.00;99103.90;1721116;81;21023;-52
2022/08/01 00:34:06;;;;;;;3.85;0.70;;;;;;;19.62;100.00;99096.88;1718337;81;21476;-52
2022/08/01 00:36:34;;;;;;;2.15;0.60;;;;;;;19.60;100.00;99100.76;1664998;84;21045;-53
2022/08/01 00:39:00;;;;;;;1.30;0.68;;;;;;;19.56;100.00;99093.35;1690462;83;21124;-54
2022/08/01 00:41:27;;;;;;;4.20;0.62;;;;;;;19.53;100.00;99095.03;1685891;83;21088;-52
2022/08/01 00:43:54;;;;;;;0.72;0.60;;;;;;;19.50;100.00;99095.31;1688524;83;21053;-53
2022/08/01 00:46:20;;;;;;;3.00;0.60;;;;;;;19.50;100.00;99095.81;1684880;83;21094;-53
2022/08/01 00:48:47;;;;;;;1.15;0.60;;;;;;;19.49;100.00;99088.63;1684663;83;21077;-52
2022/08/01 00:51:13;;;;;;;2.60;0.60;;;;;;;19.49;100.00;99088.13;1719760;81;21151;-53
2022/08/01 00:53:40;;;;;;;1.45;0.70;;;;;;;19.49;100.00;99090.86;1724229;80;21074;-55
2022/08/01 00:56:06;;;;;;;1.15;0.60;;;;;;;19.48;100.00;99088.30;1735140;80;21506;-53
2022/08/01 00:58:33;;;;;;;2.50;0.60;;;;;;;19.48;100.00;99086.41;1735390;80;21084;-52
2022/08/01 01:01:00;;;;;;;1.22;0.60;;;;;;;19.47;100.00;99083.81;1731833;80;21087;-53
2022/08/01 01:03:26;;;;;;;2.12;0.60;;;;;;;19.45;100.00;99085.31;1727973;80;21190;-52
2022/08/01 01:06:24;;;;;;;2.25;0.60;;;;;;;19.45;100.00;99077.13;1735770;80;21463;-53
2022/08/01 01:09:28;;;;;;;4.20;0.80;;;;;;;19.44;100.00;99078.13;1729603;80;22365;-53
2022/08/01 01:12:06;;;;;;;4.93;0.73;;;;;;;19.43;100.00;99081.00;1732394;80;21065;-52
2022/08/01 01:14:51;;;;;;;5.20;0.60;;;;;;;19.40;100.00;99081.28;1728181;80;21670;-54
2022/08/01 01:17:22;;;;;;;1.22;0.60;;;;;;;19.38;100.00;99081.45;1735250;80;21149;-52
2022/08/01 01:19:52;;;;;;;1.30;0.57;;;;;;;19.34;100.00;99071.83;1726608;80;21069;-53
2022/08/01 01:22:33;;;;;;;1.52;0.50;;;;;;;19.32;100.00;99073.83;1729801;80;21121;-51
2022/08/01 01:25:38;;;;;;;0.60;0.53;;;;;;;19.30;100.00;99071.77;1729479;80;21117;-52
2022/08/01 01:28:27;;;;;;;1.40;0.55;;;;;;;19.27;100.00;99075.64;1738980;80;21054;-52
2022/08/01 01:30:55;;;;;;;5.33;0.80;;;;;;;19.27;100.00;99075.64;1731912;80;21180;-54
2022/08/01 01:33:21;;;;;;;1.65;0.60;;;;;;;19.26;100.00;99076.64;1730031;80;21114;-54
2022/08/01 01:35:52;;;;;;;2.40;0.60;;;;;;;19.26;100.00;99074.42;1735521;80;21447;-55
2022/08/01 01:38:24;;;;;;;1.47;0.53;;;;;;;19.24;100.00;99069.10;1733629;80;21546;-54
2022/08/01 01:40:51;;;;;;;0.80;0.53;;;;;;;19.25;100.00;99074.06;1731276;80;21511;-52
2022/08/01 01:43:17;;;;;;;2.98;0.53;;;;;;;19.24;100.00;99076.42;1735183;80;21180;-55
2022/08/01 01:45:45;;;;;;;0.80;0.53;;;;;;;19.23;100.00;99073.33;1730742;80;21315;-54
2022/08/01 01:48:15;;;;;;;1.22;0.60;;;;;;;19.20;100.00;99077.23;1732740;80;21479;-53
2022/08/01 01:50:42;;;;;;;3.72;0.53;;;;;;;19.18;100.00;99076.51;1736872;80;21116;-52
2022/08/01 01:53:10;;;;;;;1.10;0.53;;;;;;;19.16;100.00;99080.38;1728158;80;21962;-55
2022/08/01 01:55:38;;;;;;;2.45;0.60;;;;;;;19.12;100.00;99092.59;1733792;80;21130;-53
2022/08/01 01:58:05;;;;;;;2.77;0.70;;;;;;;19.09;100.00;99090.15;1728828;80;21613;-53
2022/08/01 02:00:32;;;;;;;2.05;0.60;;;;;;;19.05;100.00;99091.45;1728600;80;22601;-54
2022/08/01 02:02:59;;;;;;;3.33;0.42;;;;;;;19.04;100.00;99087.00;1731377;80;20982;-54
2022/08/01 02:05:26;;;;;;;2.30;0.53;;;;;;;19.06;100.00;99087.70;1735584;80;21039;-55
2022/08/01 02:07:52;;;;;;;1.72;0.62;;;;;;;19.08;100.00;99089.78;1732493;80;21110;-55
2022/08/01 02:10:18;;;;;;;1.30;0.50;;;;;;;19.09;100.00;99080.60;1695942;82;20922;-55
2022/08/01 02:12:45;;;;;;;0.98;0.53;;;;;;;19.10;100.00;99085.92;1733200;80;20946;-55
2022/08/01 02:15:13;;;;;;;1.35;0.50;;;;;;;19.12;100.00;99085.78;1733697;80;20986;-55
2022/08/01 02:17:45;;;;;;;0.78;0.55;;;;;;;19.12;100.00;99080.33;1732120;80;21050;-54
2022/08/01 02:20:12;;;;;;;0.88;0.53;;;;;;;19.13;100.00;99080.19;1730559;80;21849;-54
2022/08/01 02:22:46;;;;;;;2.75;0.75;;;;;;;19.13;100.00;99080.69;1730346;80;21640;-55
2022/08/01 02:25:26;;;;;;;6.10;0.68;;;;;;;19.12;100.00;99074.87;1733203;80;20914;-55
2022/08/01 02:28:01;;;;;;;1.42;0.60;;;;;;;19.10;100.00;99076.38;1729547;80;20970;-54
2022/08/01 02:30:32;;;;;;;2.85;0.50;;;;;;;19.09;100.00;99076.01;1733546;80;20891;-54
2022/08/01 02:33:20;;;;;;;0.90;0.57;;;;;;;19.08;100.00;99078.87;1734010;80;21425;-54
2022/08/01 02:35:52;;;;;;;2.45;0.50;;;;;;;19.07;100.00;99066.23;1735938;80;20899;-54
2022/08/01 02:38:20;;;;;;;2.98;0.60;;;;;;;19.08;100.00;99072.92;1732172;80;21420;-54
2022/08/01 02:40:47;;;;;;;1.05;0.60;;;;;;;19.09;100.00;99066.96;1725744;80;22243;-54
2022/08/01 02:43:15;;;;;;;1.42;0.53;;;;;;;19.10;100.00;99074.14;1710544;80;20899;-54
2022/08/01 02:45:48;;;;;;;3.15;0.50;;;;;;;19.10;100.00;99070.05;1739878;80;21833;-55
2022/08/01 02:48:15;;;;;;;1.00;0.60;;;;;;;19.11;100.00;99060.87;1734049;80;20939;-55
2022/08/01 02:50:44;;;;;;;0.90;0.57;;;;;;;19.11;100.00;99062.23;1732896;80;20926;-54
2022/08/01 02:53:12;;;;;;;1.55;0.60;;;;;;;19.11;100.00;99064.95;1735746;80;21081;-54
2022/08/01 02:55:39;;;;;;;3.98;0.55;;;;;;;19.08;100.00;99062.01;1733481;80;21058;-54
2022/08/01 02:58:06;;;;;;;2.40;0.55;;;;;;;19.06;100.00;99058.55;1738998;80;21768;-54
2022/08/01 03:00:33;;;;;;;1.50;0.50;;;;;;;19.05;100.00;99060.09;1704092;82;21052;-54
2022/08/01 03:02:59;;;;;;;4.08;0.60;;;;;;;19.04;100.00;99059.73;1685383;83;21055;-54
2022/08/01 03:05:26;;;;;;;0.70;0.42;;;;;;;19.03;100.00;99054.77;1708329;82;21127;-54
2022/08/01 03:07:54;;;;;;;1.47;0.60;;;;;;;19.04;100.00;99062.45;1709225;82;21156;-54
2022/08/01 03:10:21;;;;;;;6.05;0.60;;;;;;;19.06;100.00;99062.65;1687596;83;21214;-54
2022/08/01 03:12:47;;;;;;;1.17;0.70;;;;;;;19.09;100.00;99064.23;1663507;83;21058;-54
2022/08/01 03:15:14;;;;;;;4.97;0.80;;;;;;;19.12;100.00;99072.14;1703591;82;21048;-55
2022/08/01 03:17:41;;;;;;;3.25;0.50;;;;;;;19.13;100.00;99076.09;1708287;82;21531;-55
2022/08/01 03:20:08;;;;;;;2.05;0.60;;;;;;;19.15;100.00;99078.66;1707135;82;21143;-55
2022/08/01 03:22:35;;;;;;;3.40;0.65;;;;;;;19.16;100.00;99077.15;1709587;82;22031;-54
2022/08/01 03:25:01;;;;;;;2.80;0.60;;;;;;;19.17;100.00;99075.28;1683833;82;21707;-54
2022/08/01 03:27:27;;;;;;;2.30;0.53;;;;;;;19.18;100.00;99076.51;1659120;83;21107;-55
2022/08/01 03:29:55;;;;;;;3.60;0.60;;;;;;;19.20;100.00;99075.01;1685901;83;21115;-54
2022/08/01 03:32:22;;;;;;;2.77;0.60;;;;;;;19.21;100.00;99078.09;1655149;83;21539;-55
2022/08/01 03:34:48;;;;;;;1.25;0.50;;;;;;;19.22;100.00;99082.02;1707743;82;21191;-55
2022/08/01 03:37:27;;;;;;;1.07;0.47;;;;;;;19.23;100.00;99073.33;1707555;82;21123;-55
2022/08/01 03:40:19;;;;;;;2.25;0.50;;;;;;;19.26;100.00;99080.73;1684001;83;21071;-55
2022/08/01 03:42:49;;;;;;;1.22;0.50;;;;;;;19.30;100.00;99074.50;1675818;83;21059;-55
2022/08/01 03:45:22;;;;;;;1.67;0.70;;;;;;;19.32;100.00;99076.55;1686183;83;21100;-55
2022/08/01 03:47:51;;;;;;;2.83;0.60;;;;;;;19.35;100.00;99076.28;1682046;83;21143;-54
2022/08/01 03:50:17;;;;;;;1.70;0.62;;;;;;;19.36;100.00;99068.45;1686572;83;21086;-55
2022/08/01 03:52:45;;;;;;;0.93;0.60;;;;;;;19.37;100.00;99082.45;1636843;83;21097;-54
2022/08/01 03:55:11;;;;;;;1.65;0.65;;;;;;;19.37;100.00;99077.50;1679234;83;21516;-54
2022/08/01 03:57:38;;;;;;;2.22;0.60;;;;;;;19.35;100.00;99083.10;1717367;81;21050;-55
2022/08/01 04:00:08;;;;;;;0.82;0.50;;;;;;;19.33;100.00;99080.15;1661025;84;21176;-55
2022/08/01 04:02:36;;;;;;;3.65;0.60;;;;;;;19.31;100.00;99074.00;1669515;83;21080;-54
2022/08/01 04:05:04;;;;;;;1.62;0.60;;;;;;;19.30;100.00;99077.73;1658782;84;21484;-53
2022/08/01 04:07:32;;;;;;;3.00;0.60;;;;;;;19.31;100.00;99072.64;1677131;83;21083;-54
2022/08/01 04:09:59;;;;;;;0.62;0.60;;;;;;;19.33;100.00;99072.83;1720773;81;21524;-54
2022/08/01 04:12:26;;;;;;;1.62;0.50;;;;;;;19.38;100.00;99075.13;1717125;81;21106;-54
2022/08/01 04:14:52;;;;;;;3.35;0.60;;;;;;;19.43;100.00;99075.05;1683982;83;21772;-54
2022/08/01 04:17:19;;;;;;;5.75;0.60;;;;;;;19.49;100.00;99073.12;1718189;81;21094;-53
2022/08/01 04:19:45;;;;;;;4.55;0.57;;;;;;;19.55;100.00;99075.78;1713310;81;21038;-53
2022/08/01 04:22:14;;;;;;;2.45;0.60;;;;;;;19.63;100.00;99078.14;1715521;81;21069;-54
2022/08/01 04:24:44;;;;;;;3.35;0.60;;;;;;;19.71;100.00;99069.20;1717635;81;21128;-54
2022/08/01 04:27:13;;;;;;;0.70;0.60;;;;;;;19.77;100.00;99080.89;1717465;81;21085;-54
2022/08/01 04:29:40;;;;;;;4.12;0.50;;;;;;;19.83;100.00;99072.09;1718150;81;21432;-55
2022/08/01 04:32:09;;;;;;;3.33;0.93;;;;;;;19.87;100.00;99066.70;1718102;81;21036;-55
2022/08/01 04:34:36;;;;;;;1.75;0.60;;;;;;;19.92;100.00;99069.84;1719638;81;21050;-54
2022/08/01 04:37:02;;;;;;;1.20;0.50;;;;;;;19.98;100.00;99065.67;1719628;81;22419;-55
2022/08/01 04:39:31;;;;;;;3.62;0.50;;;;;;;20.04;100.00;99066.42;1715333;81;22387;-54
2022/08/01 04:41:58;;;;;;;2.37;0.57;;;;;;;20.13;100.00;99066.03;1717350;81;21086;-55
2022/08/01 04:44:27;;;;;;;2.08;0.50;;;;;;;20.19;100.00;99069.00;1720653;81;21178;-54
2022/08/01 04:46:54;;;;;;;1.45;0.60;;;;;;;20.24;100.00;99068.57;1718112;81;21034;-54
2022/08/01 04:49:21;;;;;;;3.40;0.50;;;;;;;20.28;100.00;99066.73;1719523;81;21608;-54
2022/08/01 04:51:57;;;;;;;4.05;0.93;;;;;;;20.32;100.00;99062.70;1719039;81;21303;-54
2022/08/01 04:54:25;;;;;;;2.60;0.50;;;;;;;20.35;100.00;99059.67;1710947;81;21998;-54
2022/08/01 04:56:53;;;;;;;0.70;0.50;;;;;;;20.38;100.00;99053.91;1729595;80;21322;-54
2022/08/01 05:02:04;;;;;;;3.45;0.90;;;;;;;20.48;100.00;99053.86;1726542;80;21441;-54
2022/08/01 05:04:31;;;;;;;9.73;0.50;;;;;;;20.54;100.00;99054.61;1734648;80;20899;-55
2022/08/01 05:06:58;;;;;;;6.28;0.50;;;;;;;20.60;100.00;99052.61;1745116;80;20981;-54
2022/08/01 05:09:25;;;;;;;2.30;0.50;;;;;;;20.68;100.00;99051.33;1734000;80;21584;-54
2022/08/01 05:11:51;;;;;;;5.60;0.60;;;;;;;20.73;100.00;99052.25;1677815;83;21057;-54
2022/08/01 05:14:18;;;;;;;0.80;0.60;;;;;;;20.79;100.00;99057.09;1742308;80;22077;-55
2022/08/01 05:16:45;;;;;;;18.87;13.15;;;;;;;20.82;100.00;99045.85;1737328;80;21535;-54
2022/08/01 05:19:12;;;;;;;42.62;27.30;;;;;;;20.91;100.00;99044.05;1738423;80;21089;-57
2022/08/01 05:21:38;;;;;;;41.92;30.55;;;;;;;20.95;100.00;99047.67;1741140;80;21128;-55
2022/08/01 05:24:05;;;;;;;11.25;7.62;;;;;;;21.01;100.00;99043.47;1733005;80;21058;-53
2022/08/01 05:26:32;;;;;;;10.85;5.53;;;;;;;21.07;100.00;99041.47;1738608;80;21903;-55
2022/08/01 05:29:00;;;;;;;6.47;0.72;;;;;;;21.10;100.00;99037.89;1736759;80;21510;-55
2022/08/01 05:31:26;;;;;;;0.78;0.60;;;;;;;21.16;100.00;99036.42;1737785;80;20883;-54
2022/08/01 05:33:52;;;;;;;2.40;0.50;;;;;;;21.23;100.00;99045.74;1736785;80;21232;-55
2022/08/01 05:36:19;;;;;;;1.80;0.40;;;;;;;21.32;100.00;99048.89;1734624;80;21542;-62
2022/08/01 05:38:45;;;;;;;6.17;0.50;;;;;;;21.39;100.00;99043.13;1734020;80;21122;-55
2022/08/01 05:41:12;;;;;;;1.82;0.40;;;;;;;21.47;100.00;99040.95;1732141;80;21045;-55
2022/08/01 05:43:38;;;;;;;0.53;0.40;;;;;;;21.55;100.00;99045.63;1732687;80;21348;-55
2022/08/01 05:46:05;;;;;;;2.45;0.40;;;;;;;21.58;100.00;99042.58;1737142;80;21105;-56
2022/08/01 05:48:31;;;;;;;1.50;0.40;;;;;;;21.64;100.00;99050.14;1731467;80;21080;-54
2022/08/01 05:50:57;;;;;;;1.05;0.40;;;;;;;21.67;100.00;99051.20;1730052;80;21210;-53
2022/08/01 05:53:24;;;;;;;3.75;0.55;;;;;;;21.72;100.00;99053.80;1741417;80;21044;-55
2022/08/01 05:55:50;;;;;;;5.67;1.27;;;;;;;21.80;100.00;99050.25;1734437;80;21507;-55
2022/08/01 05:58:17;;;;;;;2.47;0.60;;;;;;;21.83;100.00;99056.27;1715387;81;21073;-55
2022/08/01 06:00:43;;;;;;;0.50;0.50;;;;;;;21.88;100.00;99053.89;1715916;81;21036;-55
2022/08/01 06:03:11;;;;;;;8.45;0.93;;;;;;;21.95;100.00;99061.48;1717485;81;21142;-54
2022/08/01 06:05:37;;;;;;;2.42;0.50;;;;;;;21.99;100.00;99058.78;1722650;81;21086;-54
2022/08/01 06:08:04;;;;;;;1.72;0.50;;;;;;;22.03;100.00;99058.28;1684266;83;21053;-55
2022/08/01 06:10:30;;;;;;;2.00;0.40;;;;;;;22.05;100.00;99051.27;1717152;81;21078;-54
2022/08/01 06:12:57;;;;;;;1.82;0.40;;;;;;;22.07;100.00;99059.69;1718399;81;21352;-55
2022/08/01 06:15:23;;;;;;;1.62;0.50;;;;;;;22.11;100.00;99044.66;1714282;81;21087;-55
2022/08/01 06:17:50;;;;;;;1.87;0.47;;;;;;;22.14;100.00;99042.07;1719870;81;21114;-54
2022/08/01 06:20:16;;;;;;;2.37;0.40;;;;;;;22.16;100.00;99040.03;1713143;81;21699;-55
2022/08/01 06:22:43;;;;;;;7.92;0.60;;;;;;;22.19;100.00;99047.43;1717962;81;21333;-55
2022/08/01 06:25:09;;;;;;;2.33;0.42;;;;;;;22.23;100.00;99047.43;1718428;81;21062;-53
2022/08/01 06:27:36;;;;;;;1.92;0.40;;;;;;;22.29;100.00;99040.95;1719649;81;21862;-53
2022/08/01 06:30:04;;;;;;;2.33;0.40;;;;;;;22.31;100.00;99044.37;1717608;81;21039;-55
2022/08/01 06:32:31;;;;;;;1.50;0.40;;;;;;;22.33;100.00;99039.59;1726063;81;21031;-54
2022/08/01 06:34:57;;;;;;;6.58;0.60;;;;;;;22.34;100.00;99032.57;1668084;84;21088;-53
2022/08/01 06:37:23;;;;;;;2.05;0.80;;;;;;;22.39;100.00;99032.06;1667313;84;21081;-55
2022/08/01 06:39:50;;;;;;;1.95;0.40;;;;;;;22.42;100.00;99026.25;1720147;81;22001;-55
2022/08/01 06:42:17;;;;;;;0.80;0.50;;;;;;;22.45;100.00;99021.82;1721354;81;21097;-55
2022/08/01 06:44:43;;;;;;;1.15;0.50;;;;;;;22.46;100.00;99027.11;1718828;81;21118;-53
2022/08/01 06:47:09;;;;;;;1.95;0.50;;;;;;;22.45;100.00;99023.19;1718487;81;21020;-55
2022/08/01 06:49:36;;;;;;;4.00;0.60;;;;;;;22.47;100.00;99019.23;1725191;81;21085;-55
2022/08/01 06:52:03;;;;;;;2.58;0.50;;;;;;;22.51;100.00;99012.41;1714324;81;21141;-55
2022/08/01 06:54:30;;;;;;;2.05;0.50;;;;;;;22.53;100.00;99015.84;1715180;81;21050;-54
2022/08/01 06:56:56;;;;;;;1.05;0.40;;;;;;;22.59;100.00;99012.94;1725013;81;21126;-55
2022/08/01 06:59:22;;;;;;;0.93;0.40;;;;;;;22.65;100.00;99011.74;1718072;81;21506;-55
2022/08/01 07:01:49;;;;;;;1.67;0.45;;;;;;;22.73;100.00;99017.75;1722702;81;21089;-55
2022/08/01 07:04:15;;;;;;;2.70;0.40;;;;;;;22.78;100.00;99013.18;1713387;81;21452;-55
2022/08/01 07:06:42;;;;;;;4.00;0.47;;;;;;;22.83;100.00;99017.13;1709393;81;21058;-55
2022/08/01 07:09:08;;;;;;;1.42;0.40;;;;;;;22.90;100.00;99014.55;1714294;81;21101;-54
2022/08/01 07:11:35;;;;;;;2.47;0.50;;;;;;;22.97;100.00;99012.83;1717349;81;21094;-56
2022/08/01 07:14:02;;;;;;;0.60;0.40;;;;;;;23.00;100.00;99009.25;1666340;84;21072;-55
2022/08/01 07:16:29;;;;;;;1.95;0.50;;;;;;;23.03;100.00;99008.06;1692722;83;21141;-54
2022/08/01 07:18:56;;;;;;;2.47;0.40;;;;;;;23.09;100.00;99012.85;1684623;83;21064;-55
2022/08/01 07:21:22;;;;;;;2.77;0.40;;;;;;;23.14;100.00;99009.06;1728259;81;21103;-55
2022/08/01 07:23:49;;;;;;;0.70;0.40;;;;;;;23.21;100.00;99012.88;1721591;81;21510;-54
2022/08/01 07:26:17;;;;;;;2.15;0.50;;;;;;;23.28;100.00;99017.16;1723704;81;21066;-55
2022/08/01 07:28:43;;;;;;;1.35;0.50;;;;;;;23.36;100.00;99010.28;1714951;81;21802;-55
2022/08/01 07:31:10;;;;;;;1.07;0.50;;;;;;;23.46;100.00;99010.95;1722172;81;21119;-55
2022/08/01 07:33:36;;;;;;;1.85;0.50;;;;;;;23.56;100.00;99007.52;1727681;81;21587;-54
2022/08/01 07:36:03;;;;;;;0.78;0.50;;;;;;;23.67;100.00;99007.67;1721634;81;21519;-55
2022/08/01 07:38:31;;;;;;;2.47;0.70;;;;;;;23.74;100.00;99006.80;1719806;81;21048;-53
2022/08/01 07:40:58;;;;;;;2.45;0.40;;;;;;;23.81;100.00;99007.49;1719032;81;21145;-56
2022/08/01 07:43:24;;;;;;;1.40;0.50;;;;;;;23.84;100.00;99002.48;1722280;81;21453;-55
2022/08/01 07:45:50;;;;;;;1.72;0.40;;;;;;;23.94;100.00;99000.91;1730902;81;21082;-55
2022/08/01 07:48:18;;;;;;;5.22;0.50;;;;;;;23.95;100.00;98999.36;1720301;81;21121;-55
2022/08/01 07:50:45;;;;;;;1.62;0.40;;;;;;;24.01;100.00;99000.53;1713331;81;21069;-55
2022/08/01 07:53:11;;;;;;;0.72;0.50;;;;;;;23.99;100.00;98996.58;1726455;81;21828;-55
2022/08/01 07:55:38;;;;;;;0.90;0.50;;;;;;;23.97;100.00;98998.67;1714564;81;21552;-56
2022/08/01 07:58:04;;;;;;;2.02;0.50;;;;;;;23.95;100.00;98999.36;1717350;81;21065;-55
2022/08/01 08:00:31;;;;;;;5.12;0.70;;;;;;;24.00;100.00;98998.81;1718180;81;21488;-56
2022/08/01 08:02:59;;;;;;;3.02;0.60;;;;;;;24.07;100.00;98991.05;1722789;81;21481;-55
2022/08/01 08:05:26;;;;;;;5.62;0.50;;;;;;;24.21;100.00;98994.14;1716141;81;21508;-56
2022/08/01 08:07:52;;;;;;;1.52;0.50;;;;;;;24.29;100.00;98998.22;1718447;81;21079;-56
2022/08/01 08:10:19;;;;;;;1.52;0.60;;;;;;;24.36;100.00;99001.97;1721716;81;20903;-56
2022/08/01 08:12:46;;;;;;;0.65;0.50;;;;;;;24.46;100.00;99002.09;1722846;81;20971;-56
2022/08/01 08:15:12;;;;;;;1.92;0.50;;;;;;;24.50;100.00;99002.56;1718982;81;21452;-56
2022/08/01 08:17:39;;;;;;;5.03;0.70;;;;;;;24.59;100.00;99004.75;1719407;81;21080;-56
2022/08/01 08:20:07;;;;;;;4.83;0.80;;;;;;;24.69;100.00;98995.75;1721988;81;21041;-55
2022/08/01 08:22:34;;;;;;;2.75;0.50;;;;;;;24.80;100.00;98999.47;1722439;81;21070;-55
2022/08/01 08:25:01;;;;;;;5.58;0.50;;;;;;;24.89;100.00;98997.86;1717953;81;21091;-56
2022/08/01 08:27:27;;;;;;;1.57;0.50;;;;;;;24.97;100.00;98990.09;1721668;81;21086;-56
2022/08/01 08:29:53;;;;;;;0.65;0.50;;;;;;;25.05;100.00;98983.66;1713988;81;21139;-56
2022/08/01 08:32:20;;;;;;;2.55;0.60;;;;;;;25.11;100.00;98983.77;1714290;81;21389;-56
2022/08/01 08:34:47;;;;;;;3.52;0.62;;;;;;;25.12;100.00;98973.09;1717526;81;21069;-55
2022/08/01 08:37:13;;;;;;;0.50;0.50;;;;;;;25.09;100.00;98976.23;1713794;81;21122;-56
2022/08/01 08:39:41;;;;;;;1.70;0.50;;;;;;;25.12;100.00;98973.61;1716700;81;21073;-56
2022/08/01 08:42:08;;;;;;;1.05;0.50;;;;;;;25.13;100.00;98973.43;1724963;81;21673;-55
2022/08/01 08:44:34;;;;;;;1.35;0.50;;;;;;;25.16;100.00;98976.34;1718694;81;22156;-55
2022/08/01 08:47:01;;;;;;;3.75;0.60;;;;;;;25.24;100.00;98968.86;1683105;83;21061;-55
2022/08/01 08:49:28;;;;;;;3.33;0.72;;;;;;;25.28;100.00;98967.95;1660361;84;21063;-56
2022/08/01 08:52:01;;;;;;;2.05;0.57;;;;;;;25.33;100.00;98974.30;1728181;81;21082;-56
2022/08/01 08:54:29;;;;;;;3.42;0.53;;;;;;;25.41;100.00;98981.96;1714825;81;21259;-55
2022/08/01 08:56:56;;;;;;;1.00;0.50;;;;;;;25.48;100.00;98977.41;1723858;80;21153;-57
2022/08/01 08:59:24;;;;;;;1.67;0.60;;;;;;;25.53;100.00;98979.06;1724504;80;21622;-55
2022/08/01 09:01:50;;;;;;;1.17;0.50;;;;;;;25.59;100.00;98976.99;1721504;80;21085;-55
2022/08/01 09:04:17;;;;;;;2.75;0.50;;;;;;;25.64;100.00;98976.41;1720631;80;21149;-55
2022/08/01 09:06:43;;;;;;;0.75;0.50;;;;;;;25.68;100.00;98976.91;1641600;84;22502;-56
2022/08/01 09:09:10;;;;;;;0.50;0.50;;;;;;;25.69;100.00;98980.83;1729113;80;21641;-56
2022/08/01 09:11:37;;;;;;;2.45;0.50;;;;;;;25.74;100.00;98978.89;1730654;80;21014;-54
2022/08/01 09:14:13;;;;;;;0.95;0.50;;;;;;;25.78;100.00;98979.69;1722987;80;21081;-55
2022/08/01 09:16:42;;;;;;;0.80;0.50;;;;;;;25.84;100.00;98989.13;1723427;80;21545;-55
2022/08/01 09:19:16;;;;;;;1.00;0.60;;;;;;;25.87;100.00;98988.20;1731837;80;21140;-55
2022/08/01 09:21:56;;;;;;;;;;;;;;;25.88;100.00;98988.54;1730679;80;20954;-55
2022/08/01 09:24:25;;;;;;;1.60;0.60;;;;;;;25.89;100.00;98980.61;1732714;80;20184;-55
2022/08/01 09:26:52;;;;;;;0.65;0.57;;;;;;;25.94;100.00;98990.56;1735195;80;21108;-55
2022/08/01 09:29:28;;;;;;;1.75;0.50;;;;;;;25.97;100.00;98989.30;1674829;80;975262;-55
2022/08/01 09:31:55;;;;;;;2.27;0.57;;;;;;;25.97;100.00;98989.30;1723395;80;21820;-55
2022/08/01 09:34:30;;;;;;;0.72;0.65;;;;;;;26.01;100.00;98987.89;1728583;80;21049;-55
2022/08/01 09:36:58;;;;;;;3.83;0.90;;;;;;;26.06;100.00;98995.05;1725578;80;21593;-56
2022/08/01 09:39:30;;;;;;;5.30;0.60;;;;;;;26.12;100.00;98989.28;1728611;80;21111;-55
2022/08/01 09:42:00;;;;;;;1.57;0.60;;;;;;;26.15;100.00;98988.39;1728589;80;21054;-55
2022/08/01 09:44:41;;;;;;;1.95;0.60;;;;;;;26.20;100.00;98980.38;1726279;80;21103;-57
2022/08/01 09:47:07;;;;;;;4.92;0.60;;;;;;;26.27;100.00;98981.91;1728442;80;21051;-56
2022/08/01 09:49:36;;;;;;;4.92;0.60;;;;;;;26.30;100.00;98992.02;1725724;80;21039;-54
2022/08/01 09:52:13;;;;;;;2.15;0.60;;;;;;;26.35;100.00;98990.93;1687348;82;21141;-56
2022/08/01 09:54:41;;;;;;;2.33;0.70;;;;;;;26.42;100.00;98988.77;1673109;83;21485;-56
2022/08/01 09:57:15;;;;;;;3.90;0.60;;;;;;;26.52;100.00;98985.19;1669270;82;21928;-56
2022/08/01 09:59:48;;;;;;;2.62;0.60;;;;;;;26.60;100.00;98983.16;1729478;80;21053;-54
2022/08/01 10:02:28;;;;;;;0.90;0.60;;;;;;;26.74;100.00;98981.39;1733762;80;21558;-56
2022/08/01 10:04:54;;;;;;;2.22;0.60;;;;;;;26.87;100.00;98978.80;1733687;80;21053;-56
2022/08/01 10:07:21;;;;;;;3.77;0.60;;;;;;;26.98;100.00;98974.14;1731038;80;21049;-55
2022/08/01 10:11:36;;;;;;;1.80;0.55;;;;;;;26.97;100.00;98967.42;1791014;78;22580;-56
2022/08/01 10:14:03;;;;;;;1.47;0.70;;;;;;;26.90;100.00;98977.00;1768823;79;21051;-56
2022/08/01 10:16:29;;;;;;;2.05;0.57;;;;;;;26.95;100.00;98965.41;1767883;79;21459;-56
2022/08/01 10:18:55;;;;;;;0.98;0.60;;;;;;;27.00;100.00;98962.38;1766855;79;21022;-55
2022/08/01 10:21:22;;;;;;;0.70;0.50;;;;;;;27.10;100.00;98962.05;1745651;79;878926;-55
2022/08/01 10:23:48;;;;;;;1.65;0.60;;;;;;;27.20;100.00;98964.47;1766735;79;28183;-55
2022/08/01 10:26:15;;;;;;;3.25;0.60;;;;;;;27.29;100.00;98962.75;1766406;79;22119;-56
2022/08/01 10:28:41;;;;;;;9.28;0.93;;;;;;;27.39;100.00;98956.33;1765844;79;21126;-57
2022/08/01 10:31:08;;;;;;;1.87;0.70;;;;;;;27.46;100.00;98953.64;1767123;79;21468;-57
2022/08/01 10:33:36;;;;;;;1.70;0.60;;;;;;;27.53;100.00;98947.63;1770218;79;21042;-56
2022/08/01 10:36:03;;;;;;;1.25;0.60;;;;;;;27.58;100.00;98953.42;1765389;79;21046;-56
2022/08/01 10:38:30;;;;;;;6.03;0.60;;;;;;;27.64;100.00;98956.78;1767848;79;21286;-56
2022/08/01 10:40:57;;;;;;;1.12;0.60;;;;;;;27.72;100.00;98945.57;1769540;79;22150;-56
2022/08/01 10:43:23;;;;;;;4.83;0.50;;;;;;;27.76;100.00;98942.70;1765513;79;21096;-54
2022/08/01 10:45:50;;;;;;;1.40;0.93;;;;;;;27.80;100.00;98952.32;1766750;79;21582;-57
2022/08/01 10:48:24;;;;;;;3.62;0.60;;;;;;;27.83;100.00;98951.89;1766763;79;21057;-55
2022/08/01 10:50:54;;;;;;;2.77;0.60;;;;;;;27.88;100.00;98959.59;1770161;79;21583;-58
2022/08/01 10:53:22;;;;;;;3.80;0.70;;;;;;;27.90;100.00;98960.25;1773461;79;21892;-56
2022/08/01 10:56:00;;;;;;;0.70;0.68;;;;;;;27.90;100.00;98949.19;1768732;79;20867;-56
2022/08/01 10:58:38;;;;;;;2.55;0.62;;;;;;;27.92;100.00;98944.28;1744608;79;21341;-56
2022/08/01 11:01:25;;;;;;;2.85;0.62;;;;;;;27.98;100.00;98944.88;1739310;80;20883;-56
2022/08/01 11:04:10;;;;;;;6.55;0.62;;;;;;;28.05;100.00;98947.66;1735027;80;21534;-55
2022/08/01 11:07:05;;;;;;;1.72;0.60;;;;;;;28.08;100.00;98943.08;1738860;80;21102;-56
2022/08/01 11:09:42;;;;;;;3.95;0.70;;;;;;;28.05;100.00;98942.98;1665880;83;20946;-55
2022/08/01 11:12:17;;;;;;;10.20;0.70;;;;;;;28.06;100.00;98951.61;1680226;83;20935;-57
2022/08/01 11:15:04;;;;;;;2.15;0.60;;;;;;;28.09;100.00;98948.42;1684780;83;20963;-55
2022/08/01 11:17:47;;;;;;;3.45;0.70;;;;;;;28.08;100.00;98945.32;1684224;83;20943;-55
2022/08/01 11:20:15;;;;;;;4.33;0.80;;;;;;;28.08;100.00;98951.38;1688482;83;21573;-57
2022/08/01 11:23:06;;;;;;;3.60;0.60;;;;;;;28.06;100.00;98941.08;1688571;83;21454;-56
2022/08/01 11:25:45;;;;;;;1.55;0.60;;;;;;;28.09;100.00;98943.41;1680352;83;20972;-56
2022/08/01 11:28:24;;;;;;;2.52;0.60;;;;;;;28.12;100.00;98937.48;1677718;83;21413;-57
2022/08/01 11:30:54;;;;;;;11.15;1.20;;;;;;;28.15;100.00;98950.38;1711122;82;21077;-56
2022/08/01 11:33:45;;;;;;;0.60;0.50;;;;;;;28.17;100.00;98951.05;1691963;82;21431;-55
2022/08/01 11:36:16;;;;;;;2.70;0.70;;;;;;;28.19;100.00;98960.52;1693245;82;21097;-57
2022/08/01 11:38:47;;;;;;;2.02;0.60;;;;;;;28.18;100.00;98952.75;1691554;83;21138;-55